createdAt,value
2019-04-24T00:03:34.772Z,7.53
2019-04-24T00:11:32.635Z,5.13
2019-04-24T00:14:07.390Z,5.83
2019-04-24T00:16:23.777Z,4.67
2019-04-24T00:19:10.881Z,5.77
2019-04-24T00:21:32.286Z,5.10
2019-04-24T00:26:36.889Z,7.27
2019-04-24T00:29:14.854Z,4.80
2019-04-24T00:31:35.131Z,5.73
2019-04-24T00:36:41.017Z,6.97
2019-04-24T00:39:20.923Z,8.37
2019-04-24T00:41:50.890Z,5.83
2019-04-24T00:46:55.998Z,5.30
2019-04-24T00:51:44.643Z,5.90
2019-04-24T00:54:20.796Z,6.03
2019-04-24T00:56:52.695Z,6.20
2019-04-24T01:13:02.532Z,8.00
2019-04-24T01:15:28.237Z,8.00
2019-04-24T01:17:52.879Z,5.90
2019-04-24T01:28:07.584Z,6.00
2019-04-24T01:33:33.486Z,5.43
2019-04-24T01:36:44.020Z,4.87
2019-04-24T01:39:11.674Z,4.53
2019-04-24T01:41:38.889Z,4.77
2019-04-24T01:44:07.933Z,5.73
2019-04-24T01:46:35.580Z,3.97
2019-04-24T01:49:10.477Z,4.00
2019-04-24T01:51:40.059Z,4.60
2019-04-24T01:54:16.569Z,4.80
2019-04-24T01:56:43.140Z,4.00
2019-04-24T01:59:21.925Z,4.00
2019-04-24T02:04:13.329Z,3.97
2019-04-24T02:06:55.835Z,4.23
2019-04-24T02:09:34.533Z,4.00
2019-04-24T02:14:41.003Z,4.30
2019-04-24T02:19:33.534Z,4.23
2019-04-24T02:22:11.161Z,5.53
2019-04-24T02:24:41.642Z,5.70
2019-04-24T02:27:09.770Z,5.13
2019-04-24T02:29:30.745Z,5.13
2019-04-24T02:32:40.568Z,5.40
2019-04-24T02:35:16.874Z,5.23
2019-04-24T02:37:39.597Z,6.23
2019-04-24T02:43:18.871Z,5.83
2019-04-24T02:45:46.620Z,7.53
2019-04-24T02:50:48.220Z,5.10
2019-04-24T02:53:15.025Z,4.67
2019-04-24T02:55:32.351Z,5.50
2019-04-24T02:58:26.569Z,5.17
2019-04-24T03:00:49.835Z,6.03
2019-04-24T03:03:28.130Z,4.80
2019-04-24T03:11:12.379Z,5.20
2019-04-24T03:17:19.652Z,5.27
2019-04-24T03:33:00.238Z,6.37
2019-04-24T03:37:49.116Z,6.40
2019-04-24T03:40:30.944Z,6.07
2019-04-24T03:47:50.163Z,6.70
2019-04-24T03:50:57.824Z,6.60
2019-04-24T03:52:27.844Z,10.47
2019-04-24T03:58:11.020Z,6.73
2019-04-24T04:01:02.256Z,7.30
2019-04-24T04:05:38.031Z,7.17
2019-04-24T04:10:55.474Z,14.77
2019-04-24T04:13:35.286Z,10.47
2019-04-24T04:15:52.675Z,7.80
2019-04-24T04:26:43.898Z,8.50
2019-04-24T04:34:35.055Z,9.37
2019-04-24T04:39:35.915Z,11.40
2019-04-24T04:42:29.467Z,9.93
2019-04-24T04:44:58.919Z,9.50
2019-04-24T05:03:21.443Z,9.40
2019-04-24T05:10:47.733Z,11.27
2019-04-24T05:13:15.409Z,10.67
2019-04-24T05:15:54.190Z,10.33
2019-04-24T05:19:04.192Z,10.83
2019-04-24T05:20:53.795Z,10.57
2019-04-24T05:23:33.476Z,10.73
2019-04-24T05:31:25.428Z,10.47
2019-04-24T05:36:40.551Z,11.23
2019-04-24T05:39:22.397Z,11.90
2019-04-24T05:41:45.520Z,11.40
2019-04-24T05:44:09.786Z,11.07
2019-04-24T05:52:03.312Z,12.00
2019-04-24T05:55:15.826Z,12.30
2019-04-24T06:00:27.628Z,12.37
2019-04-24T06:03:02.690Z,12.40
2019-04-24T06:05:28.471Z,11.80
2019-04-24T06:16:21.553Z,13.00
2019-04-24T06:32:14.420Z,18.20
2019-04-24T06:34:20.042Z,23.90
2019-04-24T06:40:07.161Z,13.53
2019-04-24T06:45:13.868Z,15.40
2019-04-24T06:47:50.923Z,16.57
2019-04-24T06:49:56.792Z,13.70
2019-04-24T07:00:21.096Z,14.30
2019-04-24T07:02:39.630Z,14.60
2019-04-24T07:05:19.071Z,13.87
2019-04-24T07:13:40.321Z,17.60
2019-04-24T07:16:00.418Z,23.93
2019-04-24T07:18:34.379Z,15.40
2019-04-24T07:21:21.850Z,14.07
2019-04-24T07:23:57.839Z,14.57
2019-04-24T07:26:20.591Z,15.40
2019-04-24T07:29:00.588Z,15.33
2019-04-24T07:31:49.519Z,16.67
2019-04-24T07:34:23.791Z,16.30
2019-04-24T07:39:37.081Z,15.23
2019-04-24T07:42:04.424Z,16.37
2019-04-24T07:44:50.788Z,15.20
2019-04-24T07:47:09.640Z,15.03
2019-04-24T07:52:24.889Z,14.90
2019-04-24T07:54:54.902Z,18.93
2019-04-24T07:57:23.938Z,19.43
2019-04-24T08:05:18.043Z,17.17
2019-04-24T08:15:57.939Z,15.60
2019-04-24T08:23:42.533Z,16.57
2019-04-24T08:26:00.917Z,21.53
2019-04-24T08:28:39.042Z,20.23
2019-04-24T08:31:44.423Z,23.30
2019-04-24T08:36:52.782Z,15.53
2019-04-24T08:39:32.640Z,17.97
2019-04-24T08:48:00.160Z,15.43
2019-04-24T08:53:02.554Z,28.10
2019-04-24T08:55:40.016Z,20.27
2019-04-24T09:00:46.733Z,15.93
2019-04-24T09:03:47.961Z,16.83
2019-04-24T09:08:47.914Z,16.07
2019-04-24T09:11:31.344Z,16.67
2019-04-24T09:14:13.209Z,15.83
2019-04-24T09:16:45.139Z,25.53
2019-04-24T09:21:40.566Z,19.23
2019-04-24T09:30:16.053Z,24.87
2019-04-24T09:38:10.228Z,16.43
2019-04-24T09:46:18.200Z,18.07
2019-04-24T09:51:14.679Z,19.40
2019-04-24T10:05:05.180Z,15.53
2019-04-24T10:10:02.682Z,16.53
2019-04-24T10:12:42.462Z,16.03
2019-04-24T10:15:09.171Z,17.13
2019-04-24T10:23:05.856Z,16.07
2019-04-24T10:25:45.029Z,15.20
2019-04-24T10:29:08.848Z,18.37
2019-04-24T10:34:20.931Z,17.13
2019-04-24T10:37:57.795Z,17.60
2019-04-24T10:43:31.259Z,21.40
2019-04-24T10:46:15.016Z,16.13
2019-04-24T10:48:53.935Z,15.60
2019-04-24T10:51:39.702Z,16.27
2019-04-24T10:54:11.935Z,15.97
2019-04-24T10:58:58.668Z,16.33
2019-04-24T11:04:34.849Z,15.80
2019-04-24T11:15:50.637Z,19.10
2019-04-24T11:18:36.830Z,17.93
2019-04-24T11:21:36.491Z,16.07
2019-04-24T11:23:42.277Z,17.40
2019-04-24T11:29:17.290Z,16.57
2019-04-24T11:32:14.251Z,18.23
2019-04-24T11:35:12.911Z,17.77
2019-04-24T11:38:02.993Z,15.10
2019-04-24T11:42:58.134Z,14.30
2019-04-24T11:45:47.354Z,13.97
2019-04-24T11:48:51.791Z,13.93
2019-04-24T11:51:29.263Z,17.63
2019-04-24T11:53:47.114Z,17.10
2019-04-24T11:56:31.164Z,14.20
2019-04-24T12:04:50.275Z,14.97
2019-04-24T12:07:24.460Z,14.23
2019-04-24T12:10:01.979Z,14.50
2019-04-24T12:12:26.586Z,14.23
2019-04-24T12:15:01.668Z,14.37
2019-04-24T12:18:02.529Z,19.07
2019-04-24T12:21:01.216Z,14.97
2019-04-24T12:23:26.284Z,15.73
2019-04-24T12:26:04.477Z,14.03
2019-04-24T12:28:34.093Z,23.00
2019-04-24T12:31:03.716Z,16.70
2019-04-24T12:36:08.494Z,16.27
2019-04-24T12:38:40.602Z,17.17
2019-04-24T12:41:13.265Z,17.13
2019-04-24T12:51:27.541Z,18.03
2019-04-24T12:54:17.578Z,18.90
2019-04-24T12:57:07.660Z,16.20
2019-04-24T12:59:36.483Z,14.73
2019-04-24T13:07:19.662Z,16.97
2019-04-24T13:10:06.917Z,14.57
2019-04-24T13:12:55.021Z,13.70
2019-04-24T13:15:18.198Z,14.03
2019-04-24T13:18:08.441Z,14.30
2019-04-24T13:20:00.830Z,14.07
2019-04-24T13:22:42.019Z,15.60
2019-04-24T13:25:34.524Z,15.67
2019-04-24T13:28:28.928Z,17.07
2019-04-24T13:31:14.117Z,16.73
2019-04-24T13:33:35.067Z,16.77
2019-04-24T13:36:11.057Z,18.47
2019-04-24T13:38:48.155Z,22.97
2019-04-24T13:41:00.020Z,16.33
2019-04-24T13:48:46.307Z,14.40
2019-04-24T13:51:24.291Z,18.67
2019-04-24T13:56:09.314Z,13.93
2019-04-24T14:14:13.795Z,13.40
2019-04-24T14:16:28.517Z,14.67
2019-04-24T14:22:02.411Z,13.83
2019-04-24T14:24:24.840Z,17.17
2019-04-24T14:32:05.071Z,14.43
2019-04-24T14:34:45.094Z,12.93
2019-04-24T14:37:03.519Z,12.77
2019-04-24T14:39:44.038Z,14.73
2019-04-24T14:42:11.863Z,13.30
2019-04-24T14:45:00.820Z,15.20
2019-04-24T14:47:27.666Z,14.00
2019-04-24T14:50:09.414Z,11.80
2019-04-24T14:52:34.721Z,14.60
2019-04-24T14:55:26.362Z,13.90
2019-04-24T15:00:28.972Z,12.70
2019-04-24T15:02:59.055Z,11.60
2019-04-24T15:05:28.542Z,11.97
2019-04-24T15:08:02.955Z,13.33
2019-04-24T15:10:50.861Z,12.37
2019-04-24T15:13:06.326Z,12.77
2019-04-24T15:15:24.853Z,12.83
2019-04-24T15:18:08.552Z,13.83
2019-04-24T15:20:35.755Z,14.20
2019-04-24T15:26:00.287Z,11.57
2019-04-24T15:28:13.597Z,11.87
2019-04-24T15:30:43.888Z,15.20
2019-04-24T15:33:20.373Z,11.73
2019-04-24T15:35:50.471Z,14.93
2019-04-24T15:43:21.376Z,10.93
2019-04-24T15:51:16.496Z,12.80
2019-04-24T15:52:58.501Z,12.13
2019-04-24T15:55:40.171Z,15.17
2019-04-24T15:58:19.477Z,10.10
2019-04-24T16:01:22.147Z,11.50
2019-04-24T16:03:51.441Z,9.17
2019-04-24T16:06:02.918Z,8.70
2019-04-24T16:08:32.457Z,16.10
2019-04-24T16:11:01.593Z,8.03
2019-04-24T16:13:36.583Z,8.57
2019-04-24T16:16:31.343Z,10.00
2019-04-24T16:21:33.419Z,12.63
2019-04-24T16:24:26.912Z,9.07
2019-04-24T16:34:21.147Z,8.30
2019-04-24T16:37:03.510Z,9.37
2019-04-24T16:39:32.258Z,10.40
2019-04-24T16:42:22.493Z,9.00
2019-04-24T16:44:40.076Z,9.53
2019-04-24T16:46:56.469Z,11.43
2019-04-24T16:49:44.106Z,8.37
2019-04-24T16:54:39.892Z,10.10
2019-04-24T16:57:13.814Z,8.07
2019-04-24T16:59:29.885Z,9.50
2019-04-24T17:02:12.306Z,9.80
2019-04-24T17:07:11.244Z,10.23
2019-04-24T17:09:59.869Z,10.30
2019-04-24T17:14:48.255Z,11.80
2019-04-24T17:20:07.992Z,10.17
2019-04-24T17:25:08.523Z,16.27
2019-04-24T17:32:52.282Z,13.03
2019-04-24T17:37:23.975Z,9.53
2019-04-24T17:39:58.276Z,10.70
2019-04-24T17:42:43.780Z,11.13
2019-04-24T17:45:29.325Z,11.30
2019-04-24T17:48:57.024Z,11.47
2019-04-24T18:00:06.318Z,13.73
2019-04-24T18:02:35.444Z,11.87
2019-04-24T18:05:06.497Z,11.70
2019-04-24T18:07:36.354Z,12.10
2019-04-24T18:10:06.324Z,13.37
2019-04-24T18:12:35.467Z,12.73
2019-04-24T18:15:06.629Z,11.87
2019-04-24T18:17:35.832Z,14.17
2019-04-24T18:20:05.438Z,14.13
2019-04-24T18:22:38.712Z,12.63
2019-04-24T18:25:32.331Z,13.37
2019-04-24T18:28:01.878Z,14.60
2019-04-24T18:30:33.705Z,14.80
2019-04-24T18:33:05.358Z,15.23
2019-04-24T18:35:35.230Z,14.90
2019-04-24T18:38:07.964Z,15.47
2019-04-24T18:40:35.644Z,14.77
2019-04-24T18:43:05.903Z,14.37
2019-04-24T18:45:35.163Z,13.80
2019-04-24T18:48:05.060Z,18.17
2019-04-24T18:50:34.277Z,15.73
2019-04-24T18:53:03.554Z,15.47
2019-04-24T18:55:32.891Z,15.23
2019-04-24T18:58:02.085Z,16.47
2019-04-24T19:00:32.601Z,14.33
2019-04-24T19:03:01.870Z,17.33
2019-04-24T19:05:31.970Z,15.10
2019-04-24T19:08:04.256Z,13.50
2019-04-24T19:10:33.714Z,13.03
2019-04-24T19:13:03.963Z,14.37
2019-04-24T19:15:33.667Z,14.23
2019-04-24T19:18:02.950Z,14.50
2019-04-24T19:20:32.277Z,14.93
2019-04-24T19:23:05.224Z,13.87
2019-04-24T19:25:32.524Z,14.07
2019-04-24T19:28:01.734Z,15.10
2019-04-24T19:30:31.902Z,14.53
2019-04-24T19:33:01.856Z,14.97
2019-04-24T19:35:31.631Z,16.20
2019-04-24T19:38:01.390Z,17.30
2019-04-24T19:40:39.244Z,20.43
2019-04-24T19:43:03.030Z,20.17
2019-04-24T19:45:32.919Z,15.07
2019-04-24T19:48:06.361Z,14.63
2019-04-24T19:50:35.672Z,14.30
2019-04-24T19:53:21.266Z,14.10
2019-04-24T19:55:52.311Z,13.40
2019-04-24T19:58:32.694Z,13.87
2019-04-24T20:01:04.861Z,13.60
2019-04-24T20:03:34.827Z,13.70
2019-04-24T20:06:04.542Z,13.80
2019-04-24T20:08:34.487Z,13.43
2019-04-24T20:11:37.674Z,13.37
2019-04-24T20:14:07.015Z,14.20
2019-04-24T20:16:36.395Z,13.93
2019-04-24T20:19:06.210Z,13.80
2019-04-24T20:21:39.911Z,13.23
2019-04-24T20:24:17.506Z,14.53
2019-04-24T20:26:50.213Z,14.37
2019-04-24T20:29:20.427Z,14.17
2019-04-24T20:31:55.730Z,13.57
2019-04-24T20:34:55.196Z,13.97
2019-04-24T20:37:26.722Z,14.50
2019-04-24T20:39:56.271Z,14.40
2019-04-24T20:42:34.526Z,16.17
2019-04-24T20:45:04.775Z,15.30
2019-04-24T20:47:36.233Z,16.57
2019-04-24T20:50:16.661Z,15.03
2019-04-24T20:52:47.727Z,14.97
2019-04-24T20:55:17.267Z,13.77
2019-04-24T20:57:51.814Z,13.97
2019-04-24T21:00:25.757Z,15.23
2019-04-24T21:02:56.045Z,16.37
2019-04-24T21:05:39.553Z,16.00
2019-04-24T21:08:43.904Z,14.50
2019-04-24T21:11:25.209Z,13.80
2019-04-24T21:13:55.128Z,15.87
2019-04-24T21:16:25.076Z,14.37
2019-04-24T21:18:54.725Z,14.57
2019-04-24T21:21:24.711Z,15.27
2019-04-24T21:23:56.536Z,23.90
2019-04-24T21:26:26.586Z,16.87
2019-04-24T21:28:56.020Z,21.13
2019-04-24T21:31:25.282Z,18.47
2019-04-24T21:33:54.779Z,17.23
2019-04-24T21:36:25.091Z,16.33
2019-04-24T21:38:56.216Z,15.70
2019-04-24T21:41:25.318Z,24.20
2019-04-24T21:43:54.941Z,21.57
2019-04-24T21:46:24.467Z,16.20
2019-04-24T21:48:57.851Z,16.77
2019-04-24T21:51:27.385Z,15.13
2019-04-24T21:54:04.620Z,14.60
2019-04-24T21:56:32.674Z,15.07
2019-04-24T21:59:02.163Z,15.43
2019-04-24T22:01:47.075Z,15.30
2019-04-24T22:04:42.064Z,14.30
2019-04-24T22:07:17.059Z,16.73
2019-04-24T22:09:46.445Z,18.53
2019-04-24T22:12:16.072Z,18.30
2019-04-24T22:14:45.411Z,18.43
2019-04-24T22:17:20.322Z,15.87
2019-04-24T22:19:53.075Z,17.33
2019-04-24T22:22:55.083Z,15.70
2019-04-24T22:25:41.353Z,15.97
2019-04-24T22:28:12.889Z,15.70
2019-04-24T22:30:59.886Z,15.03
2019-04-24T22:33:34.207Z,15.77
2019-04-24T22:36:01.861Z,15.23
2019-04-24T22:38:36.291Z,15.80
2019-04-24T22:41:06.478Z,16.83
2019-04-24T22:43:35.947Z,19.37
2019-04-24T22:46:05.322Z,19.40
2019-04-24T22:48:36.640Z,17.13
2019-04-24T22:51:05.759Z,17.00
2019-04-24T22:53:37.060Z,16.53
2019-04-24T22:56:08.923Z,15.97
2019-04-24T22:58:38.863Z,14.90
2019-04-24T23:01:10.013Z,14.67
2019-04-24T23:03:39.385Z,16.47
2019-04-24T23:06:08.883Z,15.70
2019-04-24T23:08:38.619Z,15.40
2019-04-24T23:11:08.132Z,15.70
2019-04-24T23:13:39.994Z,15.13
2019-04-24T23:16:12.612Z,15.40
2019-04-24T23:18:42.925Z,14.97
2019-04-24T23:21:29.808Z,14.87
2019-04-24T23:24:13.153Z,15.60
2019-04-24T23:26:53.831Z,16.77
2019-04-24T23:29:25.821Z,16.13
2019-04-24T23:32:15.097Z,14.87
2019-04-24T23:34:46.741Z,18.17
2019-04-24T23:37:16.122Z,16.13
2019-04-24T23:39:45.421Z,17.60
2019-04-24T23:42:14.649Z,18.20
2019-04-24T23:44:44.532Z,16.70
2019-04-24T23:47:13.744Z,15.53
2019-04-24T23:49:43.256Z,14.80
2019-04-24T23:52:13.197Z,14.47
2019-04-24T23:54:59.809Z,16.70
2019-04-24T23:57:13.567Z,15.00
2019-04-24T23:59:44.838Z,15.70
